sensor_id;sensor_type;location;lat;lon;timestamp;P1;durP1;ratioP1;P2;durP2;ratioP2
5418;SDS011;2732;52.092;11.556;2023-06-04T00:01:24;6.47;;;2.90;;
5418;SDS011;2732;52.092;11.556;2023-06-04T00:06:24;3.20;;;2.63;;
5418;SDS011;2732;52.092;11.556;2023-06-04T00:11:25;5.83;;;1.90;;
5418;SDS011;2732;52.092;11.556;2023-06-04T00:16:26;2.70;;;1.97;;
5418;SDS011;2732;52.092;11.556;2023-06-04T00:21:27;2.60;;;2.40;;
5418;SDS011;2732;52.092;11.556;2023-06-04T00:26:27;2.97;;;2.77;;
5418;SDS011;2732;52.092;11.556;2023-06-04T00:31:28;4.60;;;2.20;;
5418;SDS011;2732;52.092;11.556;2023-06-04T00:36:28;2.17;;;1.93;;
5418;SDS011;2732;52.092;11.556;2023-06-04T00:41:29;3.17;;;2.10;;
5418;SDS011;2732;52.092;11.556;2023-06-04T00:46:30;1.97;;;1.87;;
5418;SDS011;2732;52.092;11.556;2023-06-04T00:51:31;3.57;;;2.10;;
5418;SDS011;2732;52.092;11.556;2023-06-04T00:56:32;3.33;;;2.40;;
5418;SDS011;2732;52.092;11.556;2023-06-04T01:06:48;3.80;;;1.70;;
5418;SDS011;2732;52.092;11.556;2023-06-04T01:11:52;6.57;;;2.17;;
5418;SDS011;2732;52.092;11.556;2023-06-04T01:16:55;3.07;;;1.57;;
5418;SDS011;2732;52.092;11.556;2023-06-04T01:22:04;4.13;;;1.67;;
5418;SDS011;2732;52.092;11.556;2023-06-04T01:27:21;3.00;;;2.10;;
5418;SDS011;2732;52.092;11.556;2023-06-04T01:32:23;2.10;;;2.00;;
5418;SDS011;2732;52.092;11.556;2023-06-04T01:37:25;7.43;;;2.00;;
5418;SDS011;2732;52.092;11.556;2023-06-04T01:42:26;2.23;;;1.50;;
5418;SDS011;2732;52.092;11.556;2023-06-04T01:47:26;2.00;;;1.50;;
5418;SDS011;2732;52.092;11.556;2023-06-04T01:52:27;7.93;;;2.10;;
5418;SDS011;2732;52.092;11.556;2023-06-04T01:57:27;2.83;;;1.93;;
5418;SDS011;2732;52.092;11.556;2023-06-04T02:02:28;3.07;;;1.77;;
5418;SDS011;2732;52.092;11.556;2023-06-04T02:07:29;2.07;;;1.83;;
5418;SDS011;2732;52.092;11.556;2023-06-04T02:12:31;5.53;;;1.83;;
5418;SDS011;2732;52.092;11.556;2023-06-04T02:17:32;3.47;;;2.20;;
5418;SDS011;2732;52.092;11.556;2023-06-04T02:22:32;11.23;;;2.13;;
5418;SDS011;2732;52.092;11.556;2023-06-04T02:27:33;3.33;;;1.90;;
5418;SDS011;2732;52.092;11.556;2023-06-04T02:32:33;7.33;;;1.50;;
5418;SDS011;2732;52.092;11.556;2023-06-04T02:37:35;3.80;;;1.30;;
5418;SDS011;2732;52.092;11.556;2023-06-04T02:42:36;6.57;;;1.80;;
5418;SDS011;2732;52.092;11.556;2023-06-04T02:47:37;2.30;;;1.90;;
5418;SDS011;2732;52.092;11.556;2023-06-04T02:52:37;2.90;;;1.77;;
5418;SDS011;2732;52.092;11.556;2023-06-04T02:57:41;1.80;;;1.70;;
5418;SDS011;2732;52.092;11.556;2023-06-04T03:02:47;4.40;;;1.90;;
5418;SDS011;2732;52.092;11.556;2023-06-04T03:07:50;2.07;;;1.90;;
5418;SDS011;2732;52.092;11.556;2023-06-04T03:12:52;1.77;;;1.67;;
5418;SDS011;2732;52.092;11.556;2023-06-04T03:17:53;1.70;;;1.60;;
5418;SDS011;2732;52.092;11.556;2023-06-04T03:22:55;2.50;;;1.83;;
5418;SDS011;2732;52.092;11.556;2023-06-04T03:28:01;3.97;;;1.80;;
5418;SDS011;2732;52.092;11.556;2023-06-04T03:33:07;7.20;;;2.30;;
5418;SDS011;2732;52.092;11.556;2023-06-04T03:38:09;7.40;;;2.20;;
5418;SDS011;2732;52.092;11.556;2023-06-04T03:43:13;3.33;;;2.00;;
5418;SDS011;2732;52.092;11.556;2023-06-04T03:48:14;4.40;;;2.03;;
5418;SDS011;2732;52.092;11.556;2023-06-04T03:53:16;3.27;;;1.57;;
5418;SDS011;2732;52.092;11.556;2023-06-04T03:58:16;5.80;;;2.00;;
5418;SDS011;2732;52.092;11.556;2023-06-04T04:03:19;5.07;;;2.03;;
5418;SDS011;2732;52.092;11.556;2023-06-04T04:08:23;3.63;;;1.70;;
5418;SDS011;2732;52.092;11.556;2023-06-04T04:13:29;1.73;;;1.63;;
5418;SDS011;2732;52.092;11.556;2023-06-04T04:18:33;4.27;;;2.20;;
5418;SDS011;2732;52.092;11.556;2023-06-04T04:23:37;1.43;;;1.33;;
5418;SDS011;2732;52.092;11.556;2023-06-04T04:28:58;4.50;;;1.80;;
5418;SDS011;2732;52.092;11.556;2023-06-04T04:33:59;1.73;;;1.63;;
5418;SDS011;2732;52.092;11.556;2023-06-04T04:39:03;3.33;;;1.87;;
5418;SDS011;2732;52.092;11.556;2023-06-04T04:44:05;1.70;;;1.60;;
5418;SDS011;2732;52.092;11.556;2023-06-04T04:49:07;3.93;;;1.93;;
5418;SDS011;2732;52.092;11.556;2023-06-04T04:54:08;6.53;;;2.50;;
5418;SDS011;2732;52.092;11.556;2023-06-04T04:59:12;2.10;;;1.77;;
5418;SDS011;2732;52.092;11.556;2023-06-04T05:04:14;2.90;;;1.77;;
5418;SDS011;2732;52.092;11.556;2023-06-04T05:09:16;3.57;;;2.20;;
5418;SDS011;2732;52.092;11.556;2023-06-04T05:14:16;5.23;;;2.13;;
5418;SDS011;2732;52.092;11.556;2023-06-04T05:19:20;4.70;;;1.63;;
5418;SDS011;2732;52.092;11.556;2023-06-04T05:24:23;4.00;;;2.47;;
5418;SDS011;2732;52.092;11.556;2023-06-04T05:29:30;3.90;;;2.00;;
5418;SDS011;2732;52.092;11.556;2023-06-04T05:34:31;3.40;;;2.23;;
5418;SDS011;2732;52.092;11.556;2023-06-04T05:39:34;5.60;;;2.40;;
5418;SDS011;2732;52.092;11.556;2023-06-04T05:44:37;3.47;;;2.80;;
5418;SDS011;2732;52.092;11.556;2023-06-04T05:49:38;2.73;;;2.47;;
5418;SDS011;2732;52.092;11.556;2023-06-04T05:54:41;4.77;;;2.80;;
5418;SDS011;2732;52.092;11.556;2023-06-04T05:59:45;4.90;;;2.70;;
5418;SDS011;2732;52.092;11.556;2023-06-04T06:04:47;7.43;;;3.10;;
5418;SDS011;2732;52.092;11.556;2023-06-04T06:09:49;3.50;;;3.20;;
5418;SDS011;2732;52.092;11.556;2023-06-04T06:14:50;10.50;;;2.90;;
5418;SDS011;2732;52.092;11.556;2023-06-04T06:19:54;3.97;;;3.03;;
5418;SDS011;2732;52.092;11.556;2023-06-04T06:24:55;10.37;;;2.77;;
5418;SDS011;2732;52.092;11.556;2023-06-04T06:29:57;2.43;;;2.23;;
5418;SDS011;2732;52.092;11.556;2023-06-04T06:34:58;4.40;;;2.50;;
5418;SDS011;2732;52.092;11.556;2023-06-04T06:39:59;2.53;;;2.30;;
5418;SDS011;2732;52.092;11.556;2023-06-04T06:45:03;2.73;;;2.50;;
5418;SDS011;2732;52.092;11.556;2023-06-04T06:50:15;3.53;;;2.23;;
5418;SDS011;2732;52.092;11.556;2023-06-04T06:55:16;6.13;;;2.00;;
5418;SDS011;2732;52.092;11.556;2023-06-04T07:00:16;2.17;;;1.97;;
5418;SDS011;2732;52.092;11.556;2023-06-04T07:05:20;3.07;;;1.80;;
5418;SDS011;2732;52.092;11.556;2023-06-04T07:10:23;2.20;;;1.70;;
5418;SDS011;2732;52.092;11.556;2023-06-04T07:15:25;1.93;;;1.83;;
5418;SDS011;2732;52.092;11.556;2023-06-04T07:20:30;2.30;;;2.20;;
5418;SDS011;2732;52.092;11.556;2023-06-04T07:25:34;0.93;;;0.83;;
5418;SDS011;2732;52.092;11.556;2023-06-04T07:30:35;2.97;;;1.63;;
5418;SDS011;2732;52.092;11.556;2023-06-04T07:35:39;2.40;;;1.50;;
5418;SDS011;2732;52.092;11.556;2023-06-04T07:40:46;7.23;;;1.33;;
5418;SDS011;2732;52.092;11.556;2023-06-04T07:45:49;1.70;;;1.17;;
5418;SDS011;2732;52.092;11.556;2023-06-04T07:50:51;1.37;;;1.27;;
5418;SDS011;2732;52.092;11.556;2023-06-04T07:55:54;4.60;;;1.30;;
5418;SDS011;2732;52.092;11.556;2023-06-04T08:00:57;1.40;;;1.30;;
5418;SDS011;2732;52.092;11.556;2023-06-04T08:05:59;1.20;;;1.03;;
5418;SDS011;2732;52.092;11.556;2023-06-04T08:11:00;1.20;;;1.03;;
5418;SDS011;2732;52.092;11.556;2023-06-04T08:16:02;1.17;;;1.07;;
5418;SDS011;2732;52.092;11.556;2023-06-04T08:21:04;0.70;;;0.70;;
5418;SDS011;2732;52.092;11.556;2023-06-04T08:26:06;1.50;;;1.40;;
5418;SDS011;2732;52.092;11.556;2023-06-04T08:31:06;1.63;;;1.03;;
5418;SDS011;2732;52.092;11.556;2023-06-04T08:36:07;1.20;;;1.20;;
5418;SDS011;2732;52.092;11.556;2023-06-04T08:41:10;1.67;;;1.07;;
5418;SDS011;2732;52.092;11.556;2023-06-04T08:46:16;1.50;;;1.10;;
5418;SDS011;2732;52.092;11.556;2023-06-04T08:51:18;1.60;;;1.50;;
5418;SDS011;2732;52.092;11.556;2023-06-04T08:56:19;2.07;;;1.27;;
5418;SDS011;2732;52.092;11.556;2023-06-04T09:01:25;1.40;;;1.30;;
5418;SDS011;2732;52.092;11.556;2023-06-04T09:06:25;0.80;;;0.80;;
5418;SDS011;2732;52.092;11.556;2023-06-04T09:11:26;1.00;;;0.90;;
5418;SDS011;2732;52.092;11.556;2023-06-04T09:16:46;3.03;;;1.60;;
5418;SDS011;2732;52.092;11.556;2023-06-04T09:21:52;1.30;;;1.20;;
5418;SDS011;2732;52.092;11.556;2023-06-04T09:27:09;1.53;;;1.13;;
5418;SDS011;2732;52.092;11.556;2023-06-04T09:32:18;1.13;;;0.90;;
5418;SDS011;2732;52.092;11.556;2023-06-04T09:37:30;1.13;;;0.93;;
5418;SDS011;2732;52.092;11.556;2023-06-04T09:42:41;4.37;;;1.10;;
5418;SDS011;2732;52.092;11.556;2023-06-04T09:47:46;2.30;;;1.30;;
5418;SDS011;2732;52.092;11.556;2023-06-04T09:52:47;3.37;;;1.23;;
5418;SDS011;2732;52.092;11.556;2023-06-04T09:57:49;1.43;;;1.10;;
5418;SDS011;2732;52.092;11.556;2023-06-04T10:02:55;2.33;;;1.07;;
5418;SDS011;2732;52.092;11.556;2023-06-04T10:07:58;1.40;;;1.20;;
5418;SDS011;2732;52.092;11.556;2023-06-04T10:13:09;1.80;;;1.20;;
5418;SDS011;2732;52.092;11.556;2023-06-04T10:18:17;0.90;;;0.83;;
5418;SDS011;2732;52.092;11.556;2023-06-04T10:23:18;1.70;;;1.30;;
5418;SDS011;2732;52.092;11.556;2023-06-04T10:28:23;1.77;;;1.20;;
5418;SDS011;2732;52.092;11.556;2023-06-04T10:33:24;1.30;;;1.03;;
5418;SDS011;2732;52.092;11.556;2023-06-04T10:38:25;1.70;;;1.10;;
5418;SDS011;2732;52.092;11.556;2023-06-04T10:43:29;1.23;;;1.10;;
5418;SDS011;2732;52.092;11.556;2023-06-04T10:48:30;1.93;;;1.13;;
5418;SDS011;2732;52.092;11.556;2023-06-04T10:53:36;2.50;;;1.30;;
5418;SDS011;2732;52.092;11.556;2023-06-04T10:58:37;2.10;;;0.93;;
5418;SDS011;2732;52.092;11.556;2023-06-04T11:03:37;4.00;;;1.00;;
5418;SDS011;2732;52.092;11.556;2023-06-04T11:08:38;2.53;;;1.00;;
5418;SDS011;2732;52.092;11.556;2023-06-04T11:13:40;1.73;;;1.10;;
5418;SDS011;2732;52.092;11.556;2023-06-04T11:18:43;1.97;;;1.00;;
5418;SDS011;2732;52.092;11.556;2023-06-04T11:23:57;1.67;;;0.80;;
5418;SDS011;2732;52.092;11.556;2023-06-04T11:28:58;0.97;;;0.87;;
5418;SDS011;2732;52.092;11.556;2023-06-04T11:34:00;1.57;;;1.13;;
5418;SDS011;2732;52.092;11.556;2023-06-04T11:39:01;3.07;;;0.80;;
5418;SDS011;2732;52.092;11.556;2023-06-04T11:44:07;1.93;;;0.90;;
5418;SDS011;2732;52.092;11.556;2023-06-04T11:49:11;0.90;;;0.80;;
5418;SDS011;2732;52.092;11.556;2023-06-04T11:54:15;0.87;;;0.87;;
5418;SDS011;2732;52.092;11.556;2023-06-04T11:59:17;3.33;;;1.23;;
5418;SDS011;2732;52.092;11.556;2023-06-04T12:04:19;1.00;;;1.00;;
5418;SDS011;2732;52.092;11.556;2023-06-04T12:09:24;0.97;;;0.97;;
5418;SDS011;2732;52.092;11.556;2023-06-04T12:14:28;1.23;;;1.00;;
5418;SDS011;2732;52.092;11.556;2023-06-04T12:19:29;6.10;;;1.13;;
5418;SDS011;2732;52.092;11.556;2023-06-04T12:24:34;2.10;;;1.33;;
5418;SDS011;2732;52.092;11.556;2023-06-04T12:29:59;2.93;;;0.90;;
5418;SDS011;2732;52.092;11.556;2023-06-04T12:35:04;1.87;;;1.10;;
5418;SDS011;2732;52.092;11.556;2023-06-04T12:40:06;1.00;;;1.00;;
5418;SDS011;2732;52.092;11.556;2023-06-04T12:45:09;1.77;;;1.13;;
5418;SDS011;2732;52.092;11.556;2023-06-04T12:50:11;2.60;;;0.97;;
5418;SDS011;2732;52.092;11.556;2023-06-04T12:55:12;4.73;;;1.10;;
5418;SDS011;2732;52.092;11.556;2023-06-04T13:00:13;2.97;;;1.30;;
5418;SDS011;2732;52.092;11.556;2023-06-04T13:05:16;3.03;;;0.90;;
5418;SDS011;2732;52.092;11.556;2023-06-04T13:10:16;1.73;;;0.90;;
5418;SDS011;2732;52.092;11.556;2023-06-04T13:15:17;1.77;;;1.00;;
5418;SDS011;2732;52.092;11.556;2023-06-04T13:20:18;3.20;;;1.10;;
5418;SDS011;2732;52.092;11.556;2023-06-04T13:25:18;3.13;;;1.03;;
5418;SDS011;2732;52.092;11.556;2023-06-04T13:30:19;0.90;;;0.90;;
5418;SDS011;2732;52.092;11.556;2023-06-04T13:35:19;1.17;;;1.07;;
5418;SDS011;2732;52.092;11.556;2023-06-04T13:40:20;1.47;;;0.87;;
5418;SDS011;2732;52.092;11.556;2023-06-04T13:45:21;1.50;;;0.93;;
5418;SDS011;2732;52.092;11.556;2023-06-04T13:50:24;2.30;;;1.30;;
5418;SDS011;2732;52.092;11.556;2023-06-04T13:55:24;5.13;;;1.03;;
5418;SDS011;2732;52.092;11.556;2023-06-04T14:00:26;2.83;;;1.00;;
5418;SDS011;2732;52.092;11.556;2023-06-04T14:05:30;2.47;;;1.17;;
5418;SDS011;2732;52.092;11.556;2023-06-04T14:10:31;2.20;;;1.83;;
5418;SDS011;2732;52.092;11.556;2023-06-04T14:15:31;1.50;;;1.00;;
5418;SDS011;2732;52.092;11.556;2023-06-04T14:20:32;3.13;;;1.13;;
5418;SDS011;2732;52.092;11.556;2023-06-04T14:25:33;3.93;;;1.27;;
5418;SDS011;2732;52.092;11.556;2023-06-04T14:30:36;2.57;;;1.00;;
5418;SDS011;2732;52.092;11.556;2023-06-04T14:35:36;1.43;;;0.93;;
5418;SDS011;2732;52.092;11.556;2023-06-04T14:40:38;2.30;;;1.13;;
5418;SDS011;2732;52.092;11.556;2023-06-04T14:45:39;1.90;;;0.83;;
5418;SDS011;2732;52.092;11.556;2023-06-04T14:50:40;1.17;;;1.07;;
5418;SDS011;2732;52.092;11.556;2023-06-04T14:55:43;2.07;;;0.90;;
5418;SDS011;2732;52.092;11.556;2023-06-04T15:00:46;2.70;;;1.63;;
5418;SDS011;2732;52.092;11.556;2023-06-04T15:05:46;0.93;;;0.93;;
5418;SDS011;2732;52.092;11.556;2023-06-04T15:10:47;1.43;;;0.90;;
5418;SDS011;2732;52.092;11.556;2023-06-04T15:15:48;1.30;;;0.90;;
5418;SDS011;2732;52.092;11.556;2023-06-04T15:20:48;1.20;;;1.10;;
5418;SDS011;2732;52.092;11.556;2023-06-04T15:25:49;1.13;;;0.90;;
5418;SDS011;2732;52.092;11.556;2023-06-04T15:30:50;4.93;;;1.00;;
5418;SDS011;2732;52.092;11.556;2023-06-04T15:35:50;1.20;;;1.10;;
5418;SDS011;2732;52.092;11.556;2023-06-04T15:40:51;0.90;;;0.90;;
5418;SDS011;2732;52.092;11.556;2023-06-04T15:45:52;1.10;;;1.00;;
5418;SDS011;2732;52.092;11.556;2023-06-04T15:50:52;1.87;;;1.37;;
5418;SDS011;2732;52.092;11.556;2023-06-04T15:55:53;4.73;;;1.10;;
5418;SDS011;2732;52.092;11.556;2023-06-04T16:00:54;4.10;;;1.07;;
5418;SDS011;2732;52.092;11.556;2023-06-04T16:05:54;1.20;;;1.10;;
5418;SDS011;2732;52.092;11.556;2023-06-04T16:10:55;1.50;;;1.00;;
5418;SDS011;2732;52.092;11.556;2023-06-04T16:15:55;3.57;;;1.20;;
5418;SDS011;2732;52.092;11.556;2023-06-04T16:20:56;7.40;;;1.10;;
5418;SDS011;2732;52.092;11.556;2023-06-04T16:25:57;1.00;;;1.00;;
5418;SDS011;2732;52.092;11.556;2023-06-04T16:30:58;1.87;;;1.30;;
5418;SDS011;2732;52.092;11.556;2023-06-04T16:35:59;2.03;;;1.30;;
5418;SDS011;2732;52.092;11.556;2023-06-04T16:41:00;1.20;;;1.10;;
5418;SDS011;2732;52.092;11.556;2023-06-04T16:46:00;1.33;;;1.23;;
5418;SDS011;2732;52.092;11.556;2023-06-04T16:51:01;2.40;;;1.40;;
5418;SDS011;2732;52.092;11.556;2023-06-04T16:56:04;2.40;;;1.27;;
5418;SDS011;2732;52.092;11.556;2023-06-04T17:01:05;2.20;;;0.90;;
5418;SDS011;2732;52.092;11.556;2023-06-04T17:06:08;1.73;;;1.10;;
5418;SDS011;2732;52.092;11.556;2023-06-04T17:11:09;1.47;;;1.37;;
5418;SDS011;2732;52.092;11.556;2023-06-04T17:16:09;3.00;;;1.40;;
5418;SDS011;2732;52.092;11.556;2023-06-04T17:21:10;2.20;;;1.10;;
5418;SDS011;2732;52.092;11.556;2023-06-04T17:26:11;3.03;;;0.90;;
5418;SDS011;2732;52.092;11.556;2023-06-04T17:31:13;1.60;;;1.20;;
5418;SDS011;2732;52.092;11.556;2023-06-04T17:36:17;6.80;;;1.60;;
5418;SDS011;2732;52.092;11.556;2023-06-04T17:41:20;3.70;;;1.80;;
5418;SDS011;2732;52.092;11.556;2023-06-04T17:46:20;4.10;;;1.67;;
5418;SDS011;2732;52.092;11.556;2023-06-04T17:51:21;2.40;;;1.10;;
5418;SDS011;2732;52.092;11.556;2023-06-04T17:56:22;1.40;;;0.90;;
5418;SDS011;2732;52.092;11.556;2023-06-04T18:01:25;6.43;;;1.30;;
5418;SDS011;2732;52.092;11.556;2023-06-04T18:06:26;1.77;;;1.20;;
5418;SDS011;2732;52.092;11.556;2023-06-04T18:11:26;5.10;;;1.17;;
5418;SDS011;2732;52.092;11.556;2023-06-04T18:16:27;4.93;;;1.30;;
5418;SDS011;2732;52.092;11.556;2023-06-04T18:21:28;1.10;;;1.10;;
5418;SDS011;2732;52.092;11.556;2023-06-04T18:26:28;4.30;;;0.80;;
5418;SDS011;2732;52.092;11.556;2023-06-04T18:31:29;1.83;;;1.27;;
5418;SDS011;2732;52.092;11.556;2023-06-04T18:36:30;4.23;;;1.00;;
5418;SDS011;2732;52.092;11.556;2023-06-04T18:41:31;1.00;;;0.83;;
5418;SDS011;2732;52.092;11.556;2023-06-04T18:46:32;1.87;;;1.07;;
5418;SDS011;2732;52.092;11.556;2023-06-04T18:51:33;1.13;;;0.93;;
5418;SDS011;2732;52.092;11.556;2023-06-04T18:56:33;1.17;;;0.90;;
5418;SDS011;2732;52.092;11.556;2023-06-04T19:01:34;0.80;;;0.80;;
5418;SDS011;2732;52.092;11.556;2023-06-04T19:06:35;0.90;;;0.80;;
5418;SDS011;2732;52.092;11.556;2023-06-04T19:11:35;2.63;;;1.33;;
5418;SDS011;2732;52.092;11.556;2023-06-04T19:16:37;2.10;;;1.10;;
5418;SDS011;2732;52.092;11.556;2023-06-04T19:21:38;1.30;;;0.83;;
5418;SDS011;2732;52.092;11.556;2023-06-04T19:26:38;2.40;;;1.13;;
5418;SDS011;2732;52.092;11.556;2023-06-04T19:31:39;3.60;;;1.67;;
5418;SDS011;2732;52.092;11.556;2023-06-04T19:36:40;0.83;;;0.83;;
5418;SDS011;2732;52.092;11.556;2023-06-04T19:41:40;1.07;;;0.97;;
5418;SDS011;2732;52.092;11.556;2023-06-04T19:46:47;1.10;;;1.10;;
5418;SDS011;2732;52.092;11.556;2023-06-04T19:51:48;2.33;;;1.00;;
5418;SDS011;2732;52.092;11.556;2023-06-04T19:56:48;1.20;;;1.10;;
5418;SDS011;2732;52.092;11.556;2023-06-04T20:01:50;1.17;;;1.17;;
5418;SDS011;2732;52.092;11.556;2023-06-04T20:06:51;1.33;;;0.90;;
5418;SDS011;2732;52.092;11.556;2023-06-04T20:11:52;3.13;;;1.10;;
5418;SDS011;2732;52.092;11.556;2023-06-04T20:16:53;2.13;;;0.90;;
5418;SDS011;2732;52.092;11.556;2023-06-04T20:21:54;0.80;;;0.80;;
5418;SDS011;2732;52.092;11.556;2023-06-04T20:26:55;0.90;;;0.90;;
5418;SDS011;2732;52.092;11.556;2023-06-04T20:31:57;1.10;;;1.10;;
5418;SDS011;2732;52.092;11.556;2023-06-04T20:36:57;8.43;;;0.93;;
5418;SDS011;2732;52.092;11.556;2023-06-04T20:42:04;3.03;;;0.93;;
5418;SDS011;2732;52.092;11.556;2023-06-04T20:47:05;1.10;;;1.10;;
5418;SDS011;2732;52.092;11.556;2023-06-04T20:52:06;1.23;;;1.13;;
5418;SDS011;2732;52.092;11.556;2023-06-04T20:57:07;2.60;;;1.40;;
5418;SDS011;2732;52.092;11.556;2023-06-04T21:02:07;2.03;;;1.30;;
5418;SDS011;2732;52.092;11.556;2023-06-04T21:07:08;2.13;;;1.50;;
5418;SDS011;2732;52.092;11.556;2023-06-04T21:12:11;2.90;;;1.20;;
5418;SDS011;2732;52.092;11.556;2023-06-04T21:17:11;2.33;;;1.70;;
5418;SDS011;2732;52.092;11.556;2023-06-04T21:22:12;1.80;;;1.60;;
5418;SDS011;2732;52.092;11.556;2023-06-04T21:27:13;7.03;;;1.33;;
5418;SDS011;2732;52.092;11.556;2023-06-04T21:32:13;4.10;;;1.70;;
5418;SDS011;2732;52.092;11.556;2023-06-04T21:37:14;2.60;;;1.80;;
5418;SDS011;2732;52.092;11.556;2023-06-04T21:42:14;2.20;;;1.43;;
5418;SDS011;2732;52.092;11.556;2023-06-04T21:47:15;2.80;;;1.53;;
5418;SDS011;2732;52.092;11.556;2023-06-04T21:52:16;1.40;;;1.30;;
5418;SDS011;2732;52.092;11.556;2023-06-04T21:57:16;1.40;;;1.30;;
5418;SDS011;2732;52.092;11.556;2023-06-04T22:02:17;1.73;;;1.30;;
5418;SDS011;2732;52.092;11.556;2023-06-04T22:07:17;2.20;;;1.30;;
5418;SDS011;2732;52.092;11.556;2023-06-04T22:12:18;1.40;;;1.20;;
5418;SDS011;2732;52.092;11.556;2023-06-04T22:17:19;1.30;;;1.20;;
5418;SDS011;2732;52.092;11.556;2023-06-04T22:22:19;2.27;;;1.30;;
5418;SDS011;2732;52.092;11.556;2023-06-04T22:27:20;4.97;;;1.30;;
5418;SDS011;2732;52.092;11.556;2023-06-04T22:32:20;1.63;;;1.53;;
5418;SDS011;2732;52.092;11.556;2023-06-04T22:37:21;2.50;;;1.40;;
5418;SDS011;2732;52.092;11.556;2023-06-04T22:42:22;1.53;;;1.27;;
5418;SDS011;2732;52.092;11.556;2023-06-04T22:47:22;1.77;;;1.60;;
5418;SDS011;2732;52.092;11.556;2023-06-04T22:52:25;1.43;;;1.00;;
5418;SDS011;2732;52.092;11.556;2023-06-04T22:57:25;1.83;;;1.47;;
5418;SDS011;2732;52.092;11.556;2023-06-04T23:02:26;1.80;;;1.23;;
5418;SDS011;2732;52.092;11.556;2023-06-04T23:07:27;3.67;;;1.37;;
5418;SDS011;2732;52.092;11.556;2023-06-04T23:12:28;2.40;;;1.40;;
5418;SDS011;2732;52.092;11.556;2023-06-04T23:17:28;3.73;;;1.20;;
5418;SDS011;2732;52.092;11.556;2023-06-04T23:22:30;0.90;;;0.90;;
5418;SDS011;2732;52.092;11.556;2023-06-04T23:27:30;1.37;;;1.10;;
5418;SDS011;2732;52.092;11.556;2023-06-04T23:32:31;0.67;;;0.60;;
5418;SDS011;2732;52.092;11.556;2023-06-04T23:37:31;4.97;;;1.27;;
5418;SDS011;2732;52.092;11.556;2023-06-04T23:42:32;1.40;;;1.30;;
5418;SDS011;2732;52.092;11.556;2023-06-04T23:47:33;2.60;;;1.17;;
5418;SDS011;2732;52.092;11.556;2023-06-04T23:52:34;1.50;;;1.40;;
5418;SDS011;2732;52.092;11.556;2023-06-04T23:57:35;1.10;;;1.07;;
